CW2798 Aduanas ES current weather conditions

sailwx.info

Wind from 280 at 6 knots gusting 8

Air temperature 17.8° C
Dewpoint 11.3° C

Last reported at 2015-Apr-18 19:02 UTC.
Time now 2015-Apr-18 20:52 UTC

Location: N 38°48' E 000°11'.
View on Google Maps.

See reports from other nearby stations

  
Tides and Currents Weather Stations Pressure Air Temp Water Temp Dewpoint Dewpoint Depression Visibility Wind Speed Wind Dir Waves Ship Positions
date/time (UTC)wind fromknots sea level pressurealtimeterstation pressurevisibilityair tempwater tempwave heightnotes
2015-Apr-18 19:02 280 6 gusting 8 17.8
2015-Apr-18 18:47 256 6 gusting 10 17.8
2015-Apr-18 18:32 252 7 gusting 13 17.8
2015-Apr-18 18:17 248 7 gusting 13 17.8
2015-Apr-18 17:32 230 10 gusting 16 17.8
2015-Apr-18 17:17 237 9 gusting 19 18.3
2015-Apr-18 17:02 246 8 gusting 15 18.3
2015-Apr-18 16:47 244 6 gusting 11 18.9
2015-Apr-18 16:02 213 6 gusting 12 19.4
2015-Apr-18 15:47 207 5 gusting 8 19.4
2015-Apr-18 15:32 188 6 gusting 11 20.0
2015-Apr-18 15:17 178 4 gusting 8 20.6
2015-Apr-18 15:02 173 6 gusting 8 19.4
2015-Apr-18 14:17 140 2 gusting 7 19.4
2015-Apr-18 13:47 140 4 gusting 9 18.9
2015-Apr-18 13:17 144 5 gusting 13 18.3
2015-Apr-18 13:02 151 4 gusting 9 18.3
2015-Apr-18 12:32 063 1 gusting 4 18.3
2015-Apr-18 12:17 078 3 gusting 6 17.8
2015-Apr-18 11:47 101 1 gusting 5 18.9
2015-Apr-18 11:32 095 0 gusting 4 19.4
2015-Apr-18 11:02 090 0 gusting 4 18.9
2015-Apr-18 10:47 131 0 gusting 3 19.4
2015-Apr-18 10:32 053 0 gusting 3 18.9
2015-Apr-18 10:17 001 3 gusting 6 18.9
2015-Apr-18 10:02 026 3 gusting 6 18.9
2015-Apr-18 09:47 011 1 gusting 5 18.9
2015-Apr-18 09:32 021 1 gusting 5 18.9
2015-Apr-18 09:17 013 1 gusting 4 18.3
2015-Apr-18 09:02 026 3 gusting 7 18.3
2015-Apr-18 08:47 031 3 gusting 6 17.8
2015-Apr-18 08:32 17.8
2015-Apr-18 08:17 17.8
2015-Apr-18 08:02 17.8
2015-Apr-18 07:32 17.8
2015-Apr-18 07:17 16.1
2015-Apr-18 06:02 12.2
2015-Apr-18 05:47 12.2
2015-Apr-18 05:32 12.2
2015-Apr-18 05:17 12.2
2015-Apr-18 05:02 12.2
2015-Apr-18 04:47 12.8
2015-Apr-18 04:32 12.8
2015-Apr-18 04:17 13.9
2015-Apr-18 04:02 14.4
2015-Apr-18 03:47 14.4
2015-Apr-18 03:17 14.4
2015-Apr-18 02:47 13.3
2015-Apr-18 02:32 281 0 gusting 3 13.3
2015-Apr-18 02:17 13.3
2015-Apr-18 02:02 13.9
2015-Apr-18 01:32 15.0
2015-Apr-18 01:17 15.6
2015-Apr-18 00:47 294 1 gusting 2 15.6
2015-Apr-18 00:32 15.6
2015-Apr-18 00:02 275 0 gusting 4 16.7
2015-Apr-17 23:47 283 16.1
2015-Apr-17 23:32 16.1
2015-Apr-17 23:02 16.7
2015-Apr-17 22:32 236 0 gusting 3 17.2
2015-Apr-17 22:02 304 2 gusting 3 17.8
2015-Apr-17 21:47 303 1 gusting 4 17.8
2015-Apr-17 21:32 266 5 gusting 9 18.3
2015-Apr-17 21:17 291 4 gusting 5 18.3
2015-Apr-17 21:02 283 4 gusting 6 18.3
2015-Apr-17 20:32 271 4 gusting 8 18.9
2015-Apr-17 20:02 271 4 gusting 6 18.9
2015-Apr-17 19:47 266 4 gusting 6 18.9
2015-Apr-17 19:32 252 4 gusting 8 18.9
2015-Apr-17 19:17 250 5 gusting 8 18.9
2015-Apr-17 19:02 265 5 gusting 6 18.9
2015-Apr-17 18:47 279 6 gusting 9 18.9
2015-Apr-17 18:32 270 5 gusting 10 19.4
2015-Apr-17 18:17 269 6 gusting 9 19.4
2015-Apr-17 18:02 265 5 gusting 8 20.0
2015-Apr-17 16:32 236 6 gusting 9 21.1
2015-Apr-17 16:17 202 6 gusting 9 21.7
2015-Apr-17 15:47 187 7 gusting 12 21.7
2015-Apr-17 14:02 182 5 gusting 9 23.3
2015-Apr-17 13:32 155 6 gusting 9 22.2
2015-Apr-17 13:17 147 6 gusting 10 22.2
2015-Apr-17 13:02 154 4 gusting 9 21.7
2015-Apr-17 12:47 150 4 gusting 6 21.7
2015-Apr-17 12:32 146 3 gusting 6 21.7
2015-Apr-17 12:02 117 2 gusting 6 20.6
2015-Apr-17 11:47 128 4 gusting 7 20.0
2015-Apr-17 11:32 075 4 gusting 6 19.4
2015-Apr-17 11:02 091 1 gusting 3 20.0
2015-Apr-17 10:47 075 2 gusting 4 20.0
2015-Apr-17 10:02 161 4 gusting 11 20.6
2015-Apr-17 09:32 357 6 gusting 10 21.7
2015-Apr-17 09:17 340 6 gusting 9 21.7
2015-Apr-17 09:02 344 6 gusting 12 21.7
2015-Apr-17 08:47 324 3 gusting 4 21.7
2015-Apr-17 08:17 292 6 gusting 13 20.6
2015-Apr-17 08:02 295 6 gusting 13 20.6
2015-Apr-17 07:47 287 8 gusting 13 20.6
2015-Apr-17 07:17 284 6 gusting 11 20.0
2015-Apr-17 07:02 289 6 gusting 12 20.0
2015-Apr-17 06:32 295 8 gusting 14 19.4
2015-Apr-17 06:17 294 7 gusting 13 20.0
2015-Apr-17 06:02 297 8 gusting 14 20.0
2015-Apr-17 05:47 300 7 gusting 16 19.4
2015-Apr-17 05:17 300 8 gusting 14 19.4
2015-Apr-17 05:02 288 6 gusting 13 19.4
2015-Apr-17 04:47 275 3 gusting 8 16.1
2015-Apr-17 04:32 264 2 gusting 7 15.6
2015-Apr-17 04:17 265 0 gusting 2 15.6
2015-Apr-17 03:47 270 2 gusting 3 15.6
2015-Apr-17 03:32 277 0 gusting 3 13.9
2015-Apr-17 03:02 253 1 gusting 2 14.4
2015-Apr-17 02:17 284 2 gusting 6 14.4
2015-Apr-17 02:02 16.7
2015-Apr-17 01:47 16.1
2015-Apr-17 01:32 15.0
2015-Apr-17 01:17 15.0
2015-Apr-17 00:32 15.0
2015-Apr-17 00:17 15.0
2015-Apr-17 00:02 15.6
2015-Apr-16 23:47 16.1
2015-Apr-16 23:32 16.1
2015-Apr-16 23:17 327 1 gusting 2 15.0
2015-Apr-16 23:02 220 0 gusting 2 16.7
2015-Apr-16 22:32 296 0 gusting 2 16.7
2015-Apr-16 22:17 277 1 gusting 3 16.7
2015-Apr-16 22:02 279 1 gusting 3 15.6
2015-Apr-16 21:47 16.1
2015-Apr-16 21:32 276 16.1
2015-Apr-16 21:17 16.1
2015-Apr-16 21:02 283 1 gusting 5 16.1
2015-Apr-16 20:47 282 1 gusting 5 16.1
2015-Apr-16 20:32 284 2 gusting 5 16.1
2015-Apr-16 20:17 301 2 gusting 6 16.1
2015-Apr-16 20:02 314 2 gusting 3 16.7